Airport Name : Tallinn

Other Name : Tallinn

ICAO : EETN

IATA : TLL

FAA :

Latitude : 59.413317

Longitude : 24.832844

Country : Estonia

Local Date and Time : 28 Feb 2021 02:29

 

TAF (Terminal Aerodrome Forecast)

TAF EETN 272300Z 2800/2824 26010KT 9999 BKN025 PROB40 TEMPO 2800/2807 2000 SHRASN BR BKN005 SCT015CB BECMG 2805/2807 32012KT PROB30 TEMPO 2818/2824 26006KT 2000 BR BKN003

 

METAR (METeorological Aerodrome Report)

EETN 280020Z 25009KT 9999 SCT020 BKN049 01/00 Q1019 R08/19//95

EETN 272350Z 25010KT 9999 BKN017 OVC049 01/00 Q1019 R08/19//95

EETN 272320Z 25011KT 9999 BKN014 OVC025 01/00 Q1020 R08/19//95

EETN 272250Z 25010KT 9999 BKN013 OVC028 01/00 Q1020 R08/19//95

EETN 272220Z 24007KT 9999 -SNRA SCT004 OVC018 00/00 Q1020 R08/19//95

EETN 272150Z 25008KT 7000 -SN BKN005 OVC015 00/00 Q1021 R08/19//95 NOSIG

EETN 272120Z 25007KT 2800 SN OVC004 00/M00 Q1021 R08/19//95 NOSIG

EETN 272050Z 28007KT 1200 R26/P2000N SN OVC004 00/M00 Q1022 R08/19//95 TEMPO 1000

To Charter a Jet Click here.